sensor_id;sensor_type;location;lat;lon;timestamp;P1;durP1;ratioP1;P2;durP2;ratioP2
35634;SDS011;21757;43.610;1.440;2023-02-28T00:00:07;4.93;;;3.15;;
35634;SDS011;21757;43.610;1.440;2023-02-28T00:02:39;5.50;;;3.58;;
35634;SDS011;21757;43.610;1.440;2023-02-28T00:05:06;4.53;;;3.08;;
35634;SDS011;21757;43.610;1.440;2023-02-28T00:07:32;5.25;;;3.72;;
35634;SDS011;21757;43.610;1.440;2023-02-28T00:09:58;4.32;;;3.40;;
35634;SDS011;21757;43.610;1.440;2023-02-28T00:12:25;6.13;;;3.33;;
35634;SDS011;21757;43.610;1.440;2023-02-28T00:14:51;5.68;;;3.72;;
35634;SDS011;21757;43.610;1.440;2023-02-28T00:17:16;6.22;;;3.67;;
35634;SDS011;21757;43.610;1.440;2023-02-28T00:19:46;4.53;;;3.55;;
35634;SDS011;21757;43.610;1.440;2023-02-28T00:22:16;4.88;;;3.35;;
35634;SDS011;21757;43.610;1.440;2023-02-28T00:24:43;5.68;;;3.53;;
35634;SDS011;21757;43.610;1.440;2023-02-28T00:27:08;5.55;;;3.58;;
35634;SDS011;21757;43.610;1.440;2023-02-28T00:29:34;5.05;;;3.60;;
35634;SDS011;21757;43.610;1.440;2023-02-28T00:32:00;4.57;;;3.63;;
35634;SDS011;21757;43.610;1.440;2023-02-28T00:34:26;5.72;;;3.42;;
35634;SDS011;21757;43.610;1.440;2023-02-28T00:36:52;5.18;;;3.50;;
35634;SDS011;21757;43.610;1.440;2023-02-28T00:39:18;5.88;;;3.58;;
35634;SDS011;21757;43.610;1.440;2023-02-28T00:41:43;6.32;;;4.25;;
35634;SDS011;21757;43.610;1.440;2023-02-28T00:44:09;5.45;;;3.78;;
35634;SDS011;21757;43.610;1.440;2023-02-28T00:46:35;4.78;;;3.42;;
35634;SDS011;21757;43.610;1.440;2023-02-28T00:49:00;6.57;;;4.38;;
35634;SDS011;21757;43.610;1.440;2023-02-28T00:51:26;4.55;;;3.40;;
35634;SDS011;21757;43.610;1.440;2023-02-28T00:53:51;7.68;;;3.97;;
35634;SDS011;21757;43.610;1.440;2023-02-28T00:56:17;5.63;;;3.65;;
35634;SDS011;21757;43.610;1.440;2023-02-28T00:58:43;8.85;;;3.92;;
35634;SDS011;21757;43.610;1.440;2023-02-28T01:01:09;6.65;;;3.88;;
35634;SDS011;21757;43.610;1.440;2023-02-28T01:03:34;7.20;;;3.95;;
35634;SDS011;21757;43.610;1.440;2023-02-28T01:06:00;6.35;;;3.78;;
35634;SDS011;21757;43.610;1.440;2023-02-28T01:08:26;6.05;;;3.50;;
35634;SDS011;21757;43.610;1.440;2023-02-28T01:10:52;6.05;;;3.97;;
35634;SDS011;21757;43.610;1.440;2023-02-28T01:13:17;7.95;;;4.25;;
35634;SDS011;21757;43.610;1.440;2023-02-28T01:15:49;7.88;;;3.78;;
35634;SDS011;21757;43.610;1.440;2023-02-28T01:18:18;6.18;;;4.03;;
35634;SDS011;21757;43.610;1.440;2023-02-28T01:20:44;5.18;;;3.83;;
35634;SDS011;21757;43.610;1.440;2023-02-28T01:23:11;5.35;;;3.78;;
35634;SDS011;21757;43.610;1.440;2023-02-28T01:25:37;5.78;;;4.00;;
35634;SDS011;21757;43.610;1.440;2023-02-28T01:28:03;7.50;;;4.22;;
35634;SDS011;21757;43.610;1.440;2023-02-28T01:30:30;5.55;;;4.10;;
35634;SDS011;21757;43.610;1.440;2023-02-28T01:32:56;6.93;;;4.10;;
35634;SDS011;21757;43.610;1.440;2023-02-28T01:35:22;6.97;;;4.43;;
35634;SDS011;21757;43.610;1.440;2023-02-28T01:37:48;8.70;;;4.60;;
35634;SDS011;21757;43.610;1.440;2023-02-28T01:40:13;6.82;;;4.45;;
35634;SDS011;21757;43.610;1.440;2023-02-28T01:42:39;7.35;;;4.43;;
35634;SDS011;21757;43.610;1.440;2023-02-28T01:45:17;7.80;;;4.40;;
35634;SDS011;21757;43.610;1.440;2023-02-28T01:48:04;6.60;;;4.38;;
35634;SDS011;21757;43.610;1.440;2023-02-28T01:50:34;7.47;;;4.20;;
35634;SDS011;21757;43.610;1.440;2023-02-28T01:53:04;9.68;;;4.70;;
35634;SDS011;21757;43.610;1.440;2023-02-28T01:55:35;6.05;;;4.50;;
35634;SDS011;21757;43.610;1.440;2023-02-28T01:58:02;8.43;;;4.45;;
35634;SDS011;21757;43.610;1.440;2023-02-28T02:00:31;5.38;;;3.95;;
35634;SDS011;21757;43.610;1.440;2023-02-28T02:02:57;8.88;;;4.55;;
35634;SDS011;21757;43.610;1.440;2023-02-28T02:05:26;8.02;;;4.55;;
35634;SDS011;21757;43.610;1.440;2023-02-28T02:07:56;8.90;;;4.17;;
35634;SDS011;21757;43.610;1.440;2023-02-28T02:10:44;7.20;;;4.82;;
35634;SDS011;21757;43.610;1.440;2023-02-28T02:18:50;7.43;;;4.28;;
35634;SDS011;21757;43.610;1.440;2023-02-28T02:35:30;8.32;;;4.85;;
35634;SDS011;21757;43.610;1.440;2023-02-28T02:43:36;7.20;;;4.60;;
35634;SDS011;21757;43.610;1.440;2023-02-28T02:46:23;8.25;;;4.80;;
35634;SDS011;21757;43.610;1.440;2023-02-28T02:48:54;6.43;;;4.25;;
35634;SDS011;21757;43.610;1.440;2023-02-28T02:51:22;7.00;;;3.97;;
35634;SDS011;21757;43.610;1.440;2023-02-28T02:54:00;5.93;;;4.55;;
35634;SDS011;21757;43.610;1.440;2023-02-28T02:59:09;7.50;;;4.50;;
35634;SDS011;21757;43.610;1.440;2023-02-28T03:01:38;8.73;;;4.70;;
35634;SDS011;21757;43.610;1.440;2023-02-28T03:04:07;6.55;;;4.75;;
35634;SDS011;21757;43.610;1.440;2023-02-28T03:21:46;6.47;;;4.53;;
35634;SDS011;21757;43.610;1.440;2023-02-28T03:24:41;6.90;;;5.25;;
35634;SDS011;21757;43.610;1.440;2023-02-28T03:27:41;6.63;;;4.90;;
35634;SDS011;21757;43.610;1.440;2023-02-28T03:30:38;8.02;;;5.05;;
35634;SDS011;21757;43.610;1.440;2023-02-28T03:35:42;6.95;;;4.63;;
35634;SDS011;21757;43.610;1.440;2023-02-28T03:38:14;7.72;;;4.68;;
35634;SDS011;21757;43.610;1.440;2023-02-28T03:40:53;6.65;;;5.25;;
35634;SDS011;21757;43.610;1.440;2023-02-28T03:43:27;9.50;;;5.15;;
35634;SDS011;21757;43.610;1.440;2023-02-28T03:45:57;9.40;;;5.07;;
35634;SDS011;21757;43.610;1.440;2023-02-28T03:48:46;9.43;;;4.93;;
35634;SDS011;21757;43.610;1.440;2023-02-28T03:51:22;7.28;;;5.00;;
35634;SDS011;21757;43.610;1.440;2023-02-28T03:53:52;6.60;;;4.60;;
35634;SDS011;21757;43.610;1.440;2023-02-28T03:56:31;6.68;;;4.65;;
35634;SDS011;21757;43.610;1.440;2023-02-28T04:02:14;7.35;;;4.57;;
35634;SDS011;21757;43.610;1.440;2023-02-28T04:04:40;10.35;;;5.82;;
35634;SDS011;21757;43.610;1.440;2023-02-28T04:07:13;7.38;;;4.80;;
35634;SDS011;21757;43.610;1.440;2023-02-28T04:09:39;9.88;;;4.90;;
35634;SDS011;21757;43.610;1.440;2023-02-28T04:12:05;7.53;;;5.20;;
35634;SDS011;21757;43.610;1.440;2023-02-28T04:14:31;8.90;;;5.40;;
35634;SDS011;21757;43.610;1.440;2023-02-28T04:16:56;10.07;;;5.40;;
35634;SDS011;21757;43.610;1.440;2023-02-28T04:19:22;11.27;;;5.25;;
35634;SDS011;21757;43.610;1.440;2023-02-28T04:21:51;8.95;;;5.03;;
35634;SDS011;21757;43.610;1.440;2023-02-28T04:24:19;8.70;;;5.40;;
35634;SDS011;21757;43.610;1.440;2023-02-28T04:26:48;9.02;;;5.53;;
35634;SDS011;21757;43.610;1.440;2023-02-28T04:29:19;7.78;;;5.07;;
35634;SDS011;21757;43.610;1.440;2023-02-28T04:31:56;8.27;;;5.25;;
35634;SDS011;21757;43.610;1.440;2023-02-28T04:34:25;8.40;;;5.32;;
35634;SDS011;21757;43.610;1.440;2023-02-28T04:36:53;7.97;;;5.30;;
35634;SDS011;21757;43.610;1.440;2023-02-28T04:39:23;8.20;;;5.25;;
35634;SDS011;21757;43.610;1.440;2023-02-28T04:41:49;8.50;;;5.00;;
35634;SDS011;21757;43.610;1.440;2023-02-28T04:44:15;9.07;;;4.88;;
35634;SDS011;21757;43.610;1.440;2023-02-28T04:46:41;9.40;;;5.45;;
35634;SDS011;21757;43.610;1.440;2023-02-28T04:49:08;11.35;;;6.15;;
35634;SDS011;21757;43.610;1.440;2023-02-28T04:51:38;9.15;;;5.45;;
35634;SDS011;21757;43.610;1.440;2023-02-28T04:54:03;9.43;;;5.80;;
35634;SDS011;21757;43.610;1.440;2023-02-28T04:56:29;8.30;;;6.03;;
35634;SDS011;21757;43.610;1.440;2023-02-28T04:58:55;8.25;;;5.78;;
35634;SDS011;21757;43.610;1.440;2023-02-28T05:01:25;9.45;;;6.28;;
35634;SDS011;21757;43.610;1.440;2023-02-28T05:03:56;7.85;;;6.00;;
35634;SDS011;21757;43.610;1.440;2023-02-28T05:06:23;11.73;;;6.10;;
35634;SDS011;21757;43.610;1.440;2023-02-28T05:08:51;7.07;;;5.85;;
35634;SDS011;21757;43.610;1.440;2023-02-28T05:14:01;8.13;;;5.65;;
35634;SDS011;21757;43.610;1.440;2023-02-28T05:16:29;9.43;;;5.88;;
35634;SDS011;21757;43.610;1.440;2023-02-28T05:18:54;9.07;;;6.28;;
35634;SDS011;21757;43.610;1.440;2023-02-28T05:21:41;9.85;;;5.88;;
35634;SDS011;21757;43.610;1.440;2023-02-28T05:24:12;9.60;;;5.90;;
35634;SDS011;21757;43.610;1.440;2023-02-28T05:26:40;9.52;;;5.97;;
35634;SDS011;21757;43.610;1.440;2023-02-28T05:29:07;9.98;;;5.85;;
35634;SDS011;21757;43.610;1.440;2023-02-28T05:31:33;9.15;;;6.45;;
35634;SDS011;21757;43.610;1.440;2023-02-28T05:33:59;10.25;;;6.65;;
35634;SDS011;21757;43.610;1.440;2023-02-28T05:36:25;9.85;;;6.30;;
35634;SDS011;21757;43.610;1.440;2023-02-28T05:38:51;10.30;;;6.88;;
35634;SDS011;21757;43.610;1.440;2023-02-28T05:41:17;9.73;;;6.78;;
35634;SDS011;21757;43.610;1.440;2023-02-28T05:43:45;12.20;;;6.70;;
35634;SDS011;21757;43.610;1.440;2023-02-28T05:46:11;9.60;;;6.80;;
35634;SDS011;21757;43.610;1.440;2023-02-28T05:48:38;9.23;;;7.03;;
35634;SDS011;21757;43.610;1.440;2023-02-28T05:51:05;14.00;;;7.40;;
35634;SDS011;21757;43.610;1.440;2023-02-28T05:53:32;9.65;;;6.53;;
35634;SDS011;21757;43.610;1.440;2023-02-28T05:55:58;10.60;;;6.95;;
35634;SDS011;21757;43.610;1.440;2023-02-28T05:58:24;11.07;;;7.63;;
35634;SDS011;21757;43.610;1.440;2023-02-28T06:00:54;14.95;;;8.07;;
35634;SDS011;21757;43.610;1.440;2023-02-28T06:03:20;11.38;;;7.78;;
35634;SDS011;21757;43.610;1.440;2023-02-28T06:05:46;10.00;;;7.25;;
35634;SDS011;21757;43.610;1.440;2023-02-28T06:08:12;10.27;;;7.45;;
35634;SDS011;21757;43.610;1.440;2023-02-28T06:10:38;11.23;;;7.47;;
35634;SDS011;21757;43.610;1.440;2023-02-28T06:13:03;9.65;;;6.90;;
35634;SDS011;21757;43.610;1.440;2023-02-28T06:15:30;13.05;;;7.88;;
35634;SDS011;21757;43.610;1.440;2023-02-28T06:17:56;12.10;;;8.40;;
35634;SDS011;21757;43.610;1.440;2023-02-28T06:20:23;14.95;;;7.63;;
35634;SDS011;21757;43.610;1.440;2023-02-28T06:22:49;14.32;;;8.35;;
35634;SDS011;21757;43.610;1.440;2023-02-28T06:25:19;14.02;;;8.00;;
35634;SDS011;21757;43.610;1.440;2023-02-28T06:27:45;15.48;;;8.00;;
35634;SDS011;21757;43.610;1.440;2023-02-28T06:30:11;10.75;;;7.75;;
35634;SDS011;21757;43.610;1.440;2023-02-28T06:32:37;16.02;;;8.98;;
35634;SDS011;21757;43.610;1.440;2023-02-28T06:35:03;15.18;;;8.57;;
35634;SDS011;21757;43.610;1.440;2023-02-28T06:37:30;13.52;;;8.50;;
35634;SDS011;21757;43.610;1.440;2023-02-28T06:39:56;11.48;;;8.30;;
35634;SDS011;21757;43.610;1.440;2023-02-28T06:42:23;13.60;;;8.43;;
35634;SDS011;21757;43.610;1.440;2023-02-28T06:44:53;13.05;;;8.35;;
35634;SDS011;21757;43.610;1.440;2023-02-28T06:47:20;13.48;;;8.23;;
35634;SDS011;21757;43.610;1.440;2023-02-28T06:49:46;11.75;;;8.32;;
35634;SDS011;21757;43.610;1.440;2023-02-28T06:52:12;15.52;;;8.23;;
35634;SDS011;21757;43.610;1.440;2023-02-28T06:54:37;12.13;;;8.32;;
35634;SDS011;21757;43.610;1.440;2023-02-28T06:57:03;25.50;;;8.75;;
35634;SDS011;21757;43.610;1.440;2023-02-28T06:59:29;16.10;;;8.63;;
35634;SDS011;21757;43.610;1.440;2023-02-28T07:01:55;15.30;;;8.30;;
35634;SDS011;21757;43.610;1.440;2023-02-28T07:04:21;15.60;;;8.13;;
35634;SDS011;21757;43.610;1.440;2023-02-28T07:06:47;11.70;;;8.27;;
35634;SDS011;21757;43.610;1.440;2023-02-28T07:09:13;13.38;;;8.30;;
35634;SDS011;21757;43.610;1.440;2023-02-28T07:11:39;11.57;;;7.60;;
35634;SDS011;21757;43.610;1.440;2023-02-28T07:14:05;11.88;;;8.52;;
35634;SDS011;21757;43.610;1.440;2023-02-28T07:16:32;13.05;;;7.95;;
35634;SDS011;21757;43.610;1.440;2023-02-28T07:18:57;13.32;;;7.97;;
35634;SDS011;21757;43.610;1.440;2023-02-28T07:21:23;18.63;;;8.10;;
35634;SDS011;21757;43.610;1.440;2023-02-28T07:23:49;16.92;;;8.55;;
35634;SDS011;21757;43.610;1.440;2023-02-28T07:26:17;11.77;;;7.88;;
35634;SDS011;21757;43.610;1.440;2023-02-28T07:28:44;11.27;;;7.97;;
35634;SDS011;21757;43.610;1.440;2023-02-28T07:31:11;16.45;;;8.63;;
35634;SDS011;21757;43.610;1.440;2023-02-28T07:33:38;15.70;;;8.07;;
35634;SDS011;21757;43.610;1.440;2023-02-28T07:36:09;11.65;;;8.25;;
35634;SDS011;21757;43.610;1.440;2023-02-28T07:38:40;12.05;;;7.93;;
35634;SDS011;21757;43.610;1.440;2023-02-28T07:41:08;10.68;;;7.68;;
35634;SDS011;21757;43.610;1.440;2023-02-28T07:43:34;11.07;;;7.22;;
35634;SDS011;21757;43.610;1.440;2023-02-28T07:46:01;10.40;;;7.38;;
35634;SDS011;21757;43.610;1.440;2023-02-28T07:48:28;11.68;;;7.78;;
35634;SDS011;21757;43.610;1.440;2023-02-28T07:50:54;11.10;;;7.53;;
35634;SDS011;21757;43.610;1.440;2023-02-28T07:53:21;11.77;;;7.20;;
35634;SDS011;21757;43.610;1.440;2023-02-28T07:55:47;14.30;;;8.13;;
35634;SDS011;21757;43.610;1.440;2023-02-28T07:58:13;12.35;;;7.93;;
35634;SDS011;21757;43.610;1.440;2023-02-28T08:00:39;11.68;;;7.28;;
35634;SDS011;21757;43.610;1.440;2023-02-28T08:03:05;12.30;;;7.65;;
35634;SDS011;21757;43.610;1.440;2023-02-28T08:05:30;14.02;;;8.18;;
35634;SDS011;21757;43.610;1.440;2023-02-28T08:07:57;10.85;;;7.72;;
35634;SDS011;21757;43.610;1.440;2023-02-28T08:10:24;10.98;;;7.47;;
35634;SDS011;21757;43.610;1.440;2023-02-28T08:12:50;14.70;;;8.40;;
35634;SDS011;21757;43.610;1.440;2023-02-28T08:15:15;12.20;;;7.70;;
35634;SDS011;21757;43.610;1.440;2023-02-28T08:17:41;12.93;;;8.32;;
35634;SDS011;21757;43.610;1.440;2023-02-28T08:20:07;9.88;;;7.47;;
35634;SDS011;21757;43.610;1.440;2023-02-28T08:22:34;12.75;;;7.45;;
35634;SDS011;21757;43.610;1.440;2023-02-28T08:24:59;11.57;;;7.03;;
35634;SDS011;21757;43.610;1.440;2023-02-28T08:27:25;11.98;;;7.45;;
35634;SDS011;21757;43.610;1.440;2023-02-28T08:29:51;10.45;;;7.10;;
35634;SDS011;21757;43.610;1.440;2023-02-28T08:32:16;12.38;;;6.50;;
35634;SDS011;21757;43.610;1.440;2023-02-28T08:34:42;10.95;;;6.72;;
35634;SDS011;21757;43.610;1.440;2023-02-28T08:37:08;9.43;;;6.55;;
35634;SDS011;21757;43.610;1.440;2023-02-28T08:39:34;8.32;;;5.78;;
35634;SDS011;21757;43.610;1.440;2023-02-28T08:42:01;8.27;;;5.90;;
35634;SDS011;21757;43.610;1.440;2023-02-28T08:44:27;9.10;;;6.20;;
35634;SDS011;21757;43.610;1.440;2023-02-28T08:46:53;11.88;;;6.05;;
35634;SDS011;21757;43.610;1.440;2023-02-28T08:49:19;9.95;;;6.60;;
35634;SDS011;21757;43.610;1.440;2023-02-28T08:51:45;10.38;;;6.20;;
35634;SDS011;21757;43.610;1.440;2023-02-28T08:54:11;13.77;;;6.82;;
35634;SDS011;21757;43.610;1.440;2023-02-28T08:56:37;10.00;;;6.00;;
35634;SDS011;21757;43.610;1.440;2023-02-28T08:59:04;12.57;;;5.90;;
35634;SDS011;21757;43.610;1.440;2023-02-28T09:01:30;8.15;;;5.80;;
35634;SDS011;21757;43.610;1.440;2023-02-28T09:03:56;16.05;;;6.25;;
35634;SDS011;21757;43.610;1.440;2023-02-28T09:06:24;9.18;;;6.28;;
35634;SDS011;21757;43.610;1.440;2023-02-28T09:08:51;10.23;;;5.90;;
35634;SDS011;21757;43.610;1.440;2023-02-28T09:11:17;9.57;;;6.22;;
35634;SDS011;21757;43.610;1.440;2023-02-28T09:13:44;7.97;;;5.95;;
35634;SDS011;21757;43.610;1.440;2023-02-28T09:16:12;8.02;;;6.45;;
35634;SDS011;21757;43.610;1.440;2023-02-28T09:18:39;10.60;;;6.47;;
35634;SDS011;21757;43.610;1.440;2023-02-28T09:21:09;9.20;;;5.40;;
35634;SDS011;21757;43.610;1.440;2023-02-28T09:23:39;9.20;;;6.15;;
35634;SDS011;21757;43.610;1.440;2023-02-28T09:26:06;10.02;;;6.40;;
35634;SDS011;21757;43.610;1.440;2023-02-28T09:28:32;9.20;;;6.40;;
35634;SDS011;21757;43.610;1.440;2023-02-28T09:30:59;10.32;;;6.20;;
35634;SDS011;21757;43.610;1.440;2023-02-28T09:33:25;8.40;;;6.00;;
35634;SDS011;21757;43.610;1.440;2023-02-28T09:35:57;11.95;;;6.90;;
35634;SDS011;21757;43.610;1.440;2023-02-28T09:38:25;9.57;;;6.45;;
35634;SDS011;21757;43.610;1.440;2023-02-28T09:40:55;10.27;;;6.57;;
35634;SDS011;21757;43.610;1.440;2023-02-28T09:43:25;9.07;;;6.47;;
35634;SDS011;21757;43.610;1.440;2023-02-28T09:45:59;9.82;;;6.28;;
35634;SDS011;21757;43.610;1.440;2023-02-28T09:48:32;10.43;;;5.70;;
35634;SDS011;21757;43.610;1.440;2023-02-28T09:51:03;9.68;;;5.85;;
35634;SDS011;21757;43.610;1.440;2023-02-28T09:53:36;8.73;;;5.60;;
35634;SDS011;21757;43.610;1.440;2023-02-28T09:56:07;8.27;;;5.85;;
35634;SDS011;21757;43.610;1.440;2023-02-28T09:58:41;8.95;;;5.93;;
35634;SDS011;21757;43.610;1.440;2023-02-28T10:06:19;7.90;;;5.70;;
35634;SDS011;21757;43.610;1.440;2023-02-28T10:11:23;10.23;;;5.70;;
35634;SDS011;21757;43.610;1.440;2023-02-28T10:13:58;11.52;;;6.38;;
35634;SDS011;21757;43.610;1.440;2023-02-28T10:19:06;9.18;;;5.88;;
35634;SDS011;21757;43.610;1.440;2023-02-28T10:21:36;14.57;;;5.80;;
35634;SDS011;21757;43.610;1.440;2023-02-28T10:24:15;9.07;;;6.07;;
35634;SDS011;21757;43.610;1.440;2023-02-28T10:29:47;14.02;;;5.50;;
35634;SDS011;21757;43.610;1.440;2023-02-28T10:34:43;10.13;;;6.28;;
35634;SDS011;21757;43.610;1.440;2023-02-28T10:37:09;8.77;;;5.57;;
35634;SDS011;21757;43.610;1.440;2023-02-28T10:39:42;9.73;;;5.68;;
35634;SDS011;21757;43.610;1.440;2023-02-28T10:42:21;8.43;;;5.60;;
35634;SDS011;21757;43.610;1.440;2023-02-28T10:45:12;9.95;;;5.95;;
35634;SDS011;21757;43.610;1.440;2023-02-28T10:47:51;9.75;;;5.82;;
35634;SDS011;21757;43.610;1.440;2023-02-28T10:56:06;11.55;;;6.50;;
35634;SDS011;21757;43.610;1.440;2023-02-28T11:04:03;12.82;;;7.18;;
35634;SDS011;21757;43.610;1.440;2023-02-28T11:06:42;11.77;;;6.38;;
35634;SDS011;21757;43.610;1.440;2023-02-28T11:09:19;10.15;;;6.70;;
35634;SDS011;21757;43.610;1.440;2023-02-28T11:12:00;7.75;;;6.03;;
35634;SDS011;21757;43.610;1.440;2023-02-28T11:14:31;11.55;;;6.60;;
35634;SDS011;21757;43.610;1.440;2023-02-28T11:17:13;9.57;;;6.20;;
35634;SDS011;21757;43.610;1.440;2023-02-28T11:19:46;8.30;;;6.40;;
35634;SDS011;21757;43.610;1.440;2023-02-28T11:22:17;7.97;;;6.18;;
35634;SDS011;21757;43.610;1.440;2023-02-28T11:24:46;11.32;;;6.40;;
35634;SDS011;21757;43.610;1.440;2023-02-28T11:27:26;9.45;;;6.78;;
35634;SDS011;21757;43.610;1.440;2023-02-28T11:29:51;13.82;;;6.95;;
35634;SDS011;21757;43.610;1.440;2023-02-28T11:32:21;9.63;;;6.47;;
35634;SDS011;21757;43.610;1.440;2023-02-28T11:37:38;9.25;;;6.65;;
35634;SDS011;21757;43.610;1.440;2023-02-28T11:40:27;9.80;;;6.47;;
35634;SDS011;21757;43.610;1.440;2023-02-28T11:54:39;8.93;;;6.43;;
35634;SDS011;21757;43.610;1.440;2023-02-28T12:00:03;9.02;;;5.55;;
35634;SDS011;21757;43.610;1.440;2023-02-28T12:02:55;10.10;;;5.97;;
35634;SDS011;21757;43.610;1.440;2023-02-28T12:08:40;9.75;;;5.80;;
35634;SDS011;21757;43.610;1.440;2023-02-28T12:19:59;8.40;;;5.65;;
35634;SDS011;21757;43.610;1.440;2023-02-28T12:28:53;10.90;;;6.05;;
35634;SDS011;21757;43.610;1.440;2023-02-28T12:31:29;8.98;;;6.30;;
35634;SDS011;21757;43.610;1.440;2023-02-28T12:34:01;11.35;;;7.00;;
35634;SDS011;21757;43.610;1.440;2023-02-28T12:39:09;10.35;;;6.72;;
35634;SDS011;21757;43.610;1.440;2023-02-28T12:41:47;5.85;;;4.75;;
35634;SDS011;21757;43.610;1.440;2023-02-28T12:47:09;8.05;;;6.18;;
35634;SDS011;21757;43.610;1.440;2023-02-28T12:49:44;8.45;;;5.68;;
35634;SDS011;21757;43.610;1.440;2023-02-28T12:52:16;8.95;;;6.25;;
35634;SDS011;21757;43.610;1.440;2023-02-28T12:54:47;10.10;;;6.05;;
35634;SDS011;21757;43.610;1.440;2023-02-28T12:57:48;7.32;;;5.55;;
35634;SDS011;21757;43.610;1.440;2023-02-28T13:00:38;9.07;;;5.60;;
35634;SDS011;21757;43.610;1.440;2023-02-28T13:03:24;7.22;;;5.45;;
35634;SDS011;21757;43.610;1.440;2023-02-28T13:06:33;11.32;;;6.10;;
35634;SDS011;21757;43.610;1.440;2023-02-28T13:09:13;9.82;;;6.20;;
35634;SDS011;21757;43.610;1.440;2023-02-28T13:11:47;8.30;;;5.97;;
35634;SDS011;21757;43.610;1.440;2023-02-28T13:17:09;9.35;;;6.18;;
35634;SDS011;21757;43.610;1.440;2023-02-28T13:22:19;7.93;;;6.10;;
35634;SDS011;21757;43.610;1.440;2023-02-28T13:25:49;9.90;;;5.30;;
35634;SDS011;21757;43.610;1.440;2023-02-28T13:27:51;8.18;;;6.18;;
35634;SDS011;21757;43.610;1.440;2023-02-28T13:35:45;8.15;;;5.75;;
35634;SDS011;21757;43.610;1.440;2023-02-28T13:38:14;9.77;;;6.03;;
35634;SDS011;21757;43.610;1.440;2023-02-28T13:40:46;9.23;;;5.07;;
35634;SDS011;21757;43.610;1.440;2023-02-28T13:43:12;9.25;;;5.00;;
35634;SDS011;21757;43.610;1.440;2023-02-28T13:45:54;6.15;;;4.80;;
35634;SDS011;21757;43.610;1.440;2023-02-28T13:48:33;6.88;;;5.15;;
35634;SDS011;21757;43.610;1.440;2023-02-28T13:50:59;9.48;;;4.80;;
35634;SDS011;21757;43.610;1.440;2023-02-28T13:53:38;6.05;;;4.68;;
35634;SDS011;21757;43.610;1.440;2023-02-28T13:56:18;7.78;;;4.60;;
35634;SDS011;21757;43.610;1.440;2023-02-28T13:59:19;6.82;;;4.35;;
35634;SDS011;21757;43.610;1.440;2023-02-28T14:02:48;7.60;;;4.57;;
35634;SDS011;21757;43.610;1.440;2023-02-28T14:07:23;9.98;;;4.85;;
35634;SDS011;21757;43.610;1.440;2023-02-28T14:09:57;4.93;;;3.13;;
35634;SDS011;21757;43.610;1.440;2023-02-28T14:12:53;7.20;;;4.80;;
35634;SDS011;21757;43.610;1.440;2023-02-28T14:18:02;6.38;;;5.03;;
35634;SDS011;21757;43.610;1.440;2023-02-28T14:20:35;8.82;;;5.28;;
35634;SDS011;21757;43.610;1.440;2023-02-28T14:23:07;8.40;;;5.45;;
35634;SDS011;21757;43.610;1.440;2023-02-28T14:31:09;10.80;;;5.65;;
35634;SDS011;21757;43.610;1.440;2023-02-28T14:36:35;7.28;;;5.03;;
35634;SDS011;21757;43.610;1.440;2023-02-28T14:41:39;5.68;;;4.80;;
35634;SDS011;21757;43.610;1.440;2023-02-28T14:44:39;7.40;;;5.25;;
35634;SDS011;21757;43.610;1.440;2023-02-28T14:47:01;9.57;;;5.10;;
35634;SDS011;21757;43.610;1.440;2023-02-28T14:49:41;8.37;;;4.87;;
35634;SDS011;21757;43.610;1.440;2023-02-28T14:54:51;7.25;;;4.43;;
35634;SDS011;21757;43.610;1.440;2023-02-28T14:57:24;5.47;;;4.45;;
35634;SDS011;21757;43.610;1.440;2023-02-28T14:59:58;9.52;;;4.75;;
35634;SDS011;21757;43.610;1.440;2023-02-28T15:02:39;6.68;;;4.65;;
35634;SDS011;21757;43.610;1.440;2023-02-28T15:07:43;6.07;;;4.18;;
35634;SDS011;21757;43.610;1.440;2023-02-28T15:13:02;5.05;;;4.20;;
35634;SDS011;21757;43.610;1.440;2023-02-28T15:21:11;6.25;;;4.80;;
35634;SDS011;21757;43.610;1.440;2023-02-28T15:26:41;6.88;;;5.03;;
35634;SDS011;21757;43.610;1.440;2023-02-28T15:29:15;5.90;;;4.55;;
35634;SDS011;21757;43.610;1.440;2023-02-28T15:31:47;7.97;;;4.82;;
35634;SDS011;21757;43.610;1.440;2023-02-28T15:37:06;8.27;;;5.20;;
35634;SDS011;21757;43.610;1.440;2023-02-28T15:39:52;6.75;;;4.53;;
35634;SDS011;21757;43.610;1.440;2023-02-28T15:42:20;8.55;;;4.93;;
35634;SDS011;21757;43.610;1.440;2023-02-28T15:44:47;8.20;;;4.65;;
35634;SDS011;21757;43.610;1.440;2023-02-28T15:47:23;9.45;;;4.90;;
35634;SDS011;21757;43.610;1.440;2023-02-28T15:49:56;10.73;;;5.38;;
35634;SDS011;21757;43.610;1.440;2023-02-28T15:52:29;6.75;;;4.80;;
35634;SDS011;21757;43.610;1.440;2023-02-28T15:55:24;7.90;;;4.80;;
35634;SDS011;21757;43.610;1.440;2023-02-28T15:57:54;11.35;;;4.55;;
35634;SDS011;21757;43.610;1.440;2023-02-28T16:00:25;10.70;;;6.10;;
35634;SDS011;21757;43.610;1.440;2023-02-28T16:02:52;8.32;;;5.38;;
35634;SDS011;21757;43.610;1.440;2023-02-28T16:05:36;6.90;;;4.80;;
35634;SDS011;21757;43.610;1.440;2023-02-28T16:08:11;6.35;;;4.60;;
35634;SDS011;21757;43.610;1.440;2023-02-28T16:10:40;8.05;;;5.25;;
35634;SDS011;21757;43.610;1.440;2023-02-28T16:13:06;8.88;;;4.80;;
35634;SDS011;21757;43.610;1.440;2023-02-28T16:15:37;9.70;;;4.88;;
35634;SDS011;21757;43.610;1.440;2023-02-28T16:18:07;8.07;;;5.07;;
35634;SDS011;21757;43.610;1.440;2023-02-28T16:20:36;5.97;;;4.68;;
35634;SDS011;21757;43.610;1.440;2023-02-28T16:23:02;8.73;;;4.95;;
35634;SDS011;21757;43.610;1.440;2023-02-28T16:25:40;7.72;;;5.03;;
35634;SDS011;21757;43.610;1.440;2023-02-28T16:28:19;7.28;;;4.25;;
35634;SDS011;21757;43.610;1.440;2023-02-28T16:30:51;7.90;;;5.30;;
35634;SDS011;21757;43.610;1.440;2023-02-28T16:33:17;9.13;;;4.97;;
35634;SDS011;21757;43.610;1.440;2023-02-28T16:35:43;9.00;;;5.57;;
35634;SDS011;21757;43.610;1.440;2023-02-28T16:38:08;7.57;;;5.65;;
35634;SDS011;21757;43.610;1.440;2023-02-28T16:40:35;8.63;;;5.50;;
35634;SDS011;21757;43.610;1.440;2023-02-28T16:43:03;6.63;;;5.15;;
35634;SDS011;21757;43.610;1.440;2023-02-28T16:45:32;7.68;;;5.40;;
35634;SDS011;21757;43.610;1.440;2023-02-28T16:47:58;7.82;;;5.70;;
35634;SDS011;21757;43.610;1.440;2023-02-28T16:50:26;7.95;;;5.05;;
35634;SDS011;21757;43.610;1.440;2023-02-28T16:52:53;8.00;;;5.15;;
35634;SDS011;21757;43.610;1.440;2023-02-28T16:55:20;8.40;;;5.90;;
35634;SDS011;21757;43.610;1.440;2023-02-28T16:57:50;8.20;;;5.28;;
35634;SDS011;21757;43.610;1.440;2023-02-28T17:00:21;8.93;;;5.43;;
35634;SDS011;21757;43.610;1.440;2023-02-28T17:02:50;10.90;;;5.40;;
35634;SDS011;21757;43.610;1.440;2023-02-28T17:05:16;7.07;;;5.22;;
35634;SDS011;21757;43.610;1.440;2023-02-28T17:07:43;8.30;;;5.70;;
35634;SDS011;21757;43.610;1.440;2023-02-28T17:10:18;10.20;;;5.70;;
35634;SDS011;21757;43.610;1.440;2023-02-28T17:12:45;7.10;;;5.30;;
35634;SDS011;21757;43.610;1.440;2023-02-28T17:15:11;8.23;;;5.40;;
35634;SDS011;21757;43.610;1.440;2023-02-28T17:17:38;7.03;;;4.75;;
35634;SDS011;21757;43.610;1.440;2023-02-28T17:20:05;8.30;;;5.50;;
35634;SDS011;21757;43.610;1.440;2023-02-28T17:22:37;7.22;;;5.50;;
35634;SDS011;21757;43.610;1.440;2023-02-28T17:25:02;9.40;;;5.68;;
35634;SDS011;21757;43.610;1.440;2023-02-28T17:27:28;12.05;;;5.68;;
35634;SDS011;21757;43.610;1.440;2023-02-28T17:29:54;10.20;;;6.10;;
35634;SDS011;21757;43.610;1.440;2023-02-28T17:32:20;8.23;;;5.57;;
35634;SDS011;21757;43.610;1.440;2023-02-28T17:34:46;9.95;;;5.57;;
35634;SDS011;21757;43.610;1.440;2023-02-28T17:37:11;10.55;;;5.57;;
35634;SDS011;21757;43.610;1.440;2023-02-28T17:39:37;8.65;;;5.38;;
35634;SDS011;21757;43.610;1.440;2023-02-28T17:42:03;10.18;;;6.20;;
35634;SDS011;21757;43.610;1.440;2023-02-28T17:44:29;7.57;;;5.40;;
35634;SDS011;21757;43.610;1.440;2023-02-28T17:46:55;7.07;;;5.22;;